Terminal Aerodrome Forecast
Issued by NWS

Home | Current Version | Previous Version | Text Only | Print | Product List | Glossary On
Versions: 1 2 3 4 5 6 7 8 9 10 11 12 13 14
000
FTUS43 KLSX 262339
TAFCPS
TAF
KCPS 262339Z 2700/2724 16010KT P6SM BKN045
     FM270500 VRB03KT P6SM VCSH BKN045
     FM271000 23005KT 6SM -SHRA VCTS OVC045CB
      TEMPO 2711/2714 3SM -TSRA OVC025CB
     FM271500 23007KT P6SM VCSH BKN035
     FM271700 25008KT P6SM BKN045=

USA.gov is the U.S. government's official web portal to all federal, state and local government web resources and services.